Time;durP1;ratioP1;P1;durP2;ratioP2;P2;SDS_P1;SDS_P2;PMS_P1;PMS_P2;Temp;Humidity;BMP_temperature;BMP_pressure;BME280_temperature;BME280_humidity;BME280_pressure;Samples;Min_cycle;Max_cycle;Signal;HPM_P1;HPM_P2
2023/12/08 00:00:26;;;;;;;;;;;;;;;3.08;60.17;99405.03;1087936;54;978;-78
2023/12/08 00:01:27;;;;;;;;;;;;;;;3.11;59.97;99400.38;1087421;47;1036;-76
2023/12/08 00:02:31;;;;;;;;;;;;;;;3.20;59.72;99408.56;1087307;54;1036;-77
2023/12/08 00:03:32;;;;;;;;;;;;;;;3.18;59.61;99403.41;1087183;54;1063;-77
2023/12/08 00:04:36;;;;;;;;;;;;;;;3.20;59.75;99405.94;1087350;54;1084;-77
2023/12/08 00:05:36;;;;;;;;;;;;;;;3.13;59.55;99402.88;1087049;47;1344;-77
2023/12/08 00:06:40;;;;;;;;;;;;;;;3.19;59.70;99407.75;1086976;47;1008;-77
2023/12/08 00:07:43;;;;;;;;;;;;;;;3.24;59.34;99402.94;1087173;47;1159;-77
2023/12/08 00:08:46;;;;;;;;;;;;;;;3.23;59.44;99411.00;1086969;54;1643;-77
2023/12/08 00:09:47;;;;;;;;;;;;;;;3.18;59.71;99400.75;1087053;54;1847;-77
2023/12/08 00:10:50;;;;;;;;;;;;;;;3.16;59.43;99399.19;1087429;54;1499;-77
2023/12/08 00:11:52;;;;;;;;;;;;;;;3.17;59.25;99404.34;1087362;54;1122;-77
2023/12/08 00:12:56;;;;;;;;;;;;;;;3.11;59.76;99400.38;1087518;47;1179;-79
2023/12/08 00:13:57;;;;;;;;;;;;;;;3.16;59.32;99404.47;1087276;54;1196;-78
2023/12/08 00:15:00;;;;;;;;;;;;;;;3.04;59.60;99399.13;1087335;54;1391;-78
2023/12/08 00:16:01;;;;;;;;;;;;;;;3.18;59.28;99398.13;1087138;54;1119;-77
2023/12/08 00:17:01;;;;;;;;;;;;;;;3.21;59.25;99397.88;1087510;54;1127;-79
2023/12/08 00:18:04;;;;;;;;;;;;;;;3.20;59.55;99383.00;1087591;47;1064;-78
2023/12/08 00:19:05;;;;;;;;;;;;;;;3.15;59.26;99379.84;1087587;47;1072;-78
2023/12/08 00:20:09;;;;;;;;;;;;;;;3.10;59.58;99385.47;1087601;47;1083;-77
2023/12/08 00:21:10;;;;;;;;;;;;;;;3.23;59.44;99392.50;1087742;54;1162;-78
2023/12/08 00:22:14;;;;;;;;;;;;;;;3.34;58.99;99381.13;1087438;54;1100;-77
2023/12/08 00:23:18;;;;;;;;;;;;;;;3.38;58.97;99382.59;1087667;54;1076;-79
2023/12/08 00:24:21;;;;;;;;;;;;;;;3.31;59.31;99371.63;1087702;54;1008;-77
2023/12/08 00:25:22;;;;;;;;;;;;;;;3.12;59.27;99361.56;1087654;54;1423;-78
2023/12/08 00:26:25;;;;;;;;;;;;;;;3.14;59.56;99367.59;1087908;54;1084;-77
2023/12/08 00:27:25;;;;;;;;;;;;;;;3.24;59.28;99376.53;1087803;47;1032;-78
2023/12/08 00:28:29;;;;;;;;;;;;;;;3.31;59.23;99370.81;1087587;47;1065;-79
2023/12/08 00:29:29;;;;;;;;;;;;;;;3.41;58.96;99383.19;1087709;47;856;-78
2023/12/08 00:30:33;;;;;;;;;;;;;;;3.33;59.07;99372.38;1087534;47;1848;-79
2023/12/08 00:31:34;;;;;;;;;;;;;;;3.22;59.45;99369.69;1087709;54;1192;-77
2023/12/08 00:32:37;;;;;;;;;;;;;;;3.23;59.30;99358.97;1087762;47;914;-78
2023/12/08 00:33:39;;;;;;;;;;;;;;;3.19;59.47;99359.31;1088014;47;1402;-78
2023/12/08 00:34:42;;;;;;;;;;;;;;;3.22;59.25;99359.09;1088056;47;1185;-78
2023/12/08 00:35:43;;;;;;;;;;;;;;;3.20;59.35;99347.81;1087925;54;1269;-77
2023/12/08 00:36:46;;;;;;;;;;;;;;;3.17;59.25;99340.97;1088095;54;1061;-78
2023/12/08 00:37:47;;;;;;;;;;;;;;;3.14;59.64;99330.63;1088152;54;1071;-78
2023/12/08 00:38:54;;;;;;;;;;;;;;;3.14;59.63;99317.41;1088105;54;1127;-78
2023/12/08 00:39:54;;;;;;;;;;;;;;;3.20;59.63;99311.69;1088035;54;1102;-78
2023/12/08 00:40:57;;;;;;;;;;;;;;;3.34;59.58;99309.78;1088066;54;1158;-78
2023/12/08 00:41:58;;;;;;;;;;;;;;;3.38;59.32;99317.34;1087757;47;1035;-79
2023/12/08 00:43:02;;;;;;;;;;;;;;;3.42;59.10;99329.41;1088007;54;955;-78
2023/12/08 00:44:03;;;;;;;;;;;;;;;3.43;59.03;99330.22;1088007;54;1009;-78
2023/12/08 00:45:07;;;;;;;;;;;;;;;3.50;59.15;99341.19;1087794;46;1388;-77
2023/12/08 00:46:09;;;;;;;;;;;;;;;3.54;58.99;99332.91;1088154;47;1113;-78
2023/12/08 00:47:12;;;;;;;;;;;;;;;3.62;59.03;99320.88;1088079;54;1151;-79
2023/12/08 00:48:13;;;;;;;;;;;;;;;3.63;58.54;99310.22;1088061;46;1087;-77
2023/12/08 00:49:16;;;;;;;;;;;;;;;3.67;58.71;99308.19;1087986;47;1393;-78
2023/12/08 00:50:17;;;;;;;;;;;;;;;3.70;58.74;99313.19;1087805;54;1872;-78
2023/12/08 00:51:20;;;;;;;;;;;;;;;3.73;58.52;99320.91;1087887;47;1012;-77
2023/12/08 00:52:21;;;;;;;;;;;;;;;3.80;58.61;99316.81;1087957;54;1088;-78
2023/12/08 00:53:25;;;;;;;;;;;;;;;3.78;58.28;99302.03;1087780;54;1052;-78
2023/12/08 00:54:29;;;;;;;;;;;;;;;3.80;58.42;99294.84;1087884;54;1387;-78
2023/12/08 00:55:32;;;;;;;;;;;;;;;3.67;58.47;99294.97;1087970;46;1292;-78
2023/12/08 00:56:33;;;;;;;;;;;;;;;3.67;58.89;99308.19;1087939;54;1024;-77
2023/12/08 00:57:36;;;;;;;;;;;;;;;3.71;58.68;99318.38;1087930;54;1135;-79
2023/12/08 00:58:36;;;;;;;;;;;;;;;3.79;58.73;99319.59;1087832;46;1043;-78
2023/12/08 00:59:40;;;;;;;;;;;;;;;3.66;58.96;99314.41;1087772;46;1040;-79
2023/12/08 01:00:40;;;;;;;;;;;;;;;3.62;59.01;99311.19;1087753;47;1008;-79
2023/12/08 01:01:44;;;;;;;;;;;;;;;3.56;58.92;99311.63;1087962;46;1071;-78
2023/12/08 01:02:45;;;;;;;;;;;;;;;3.67;58.77;99324.03;1087852;47;1035;-78
2023/12/08 01:03:49;;;;;;;;;;;;;;;3.70;58.95;99334.34;1087918;54;1083;-77
2023/12/08 01:04:50;;;;;;;;;;;;;;;3.84;58.63;99336.78;1087842;54;1096;-79
2023/12/08 01:05:53;;;;;;;;;;;;;;;3.76;58.69;99318.03;1087721;47;1214;-78
2023/12/08 01:06:54;;;;;;;;;;;;;;;3.61;58.84;99305.97;1087896;54;1067;-77
2023/12/08 01:07:57;;;;;;;;;;;;;;;3.45;59.30;99301.88;1087778;54;1107;-77
2023/12/08 01:08:58;;;;;;;;;;;;;;;3.33;59.70;99300.16;1087928;47;1054;-78
2023/12/08 01:10:03;;;;;;;;;;;;;;;3.48;59.35;99312.22;1088124;54;1002;-78
2023/12/08 01:11:05;;;;;;;;;;;;;;;3.57;59.23;99324.75;1087982;54;1854;-79
2023/12/08 01:12:09;;;;;;;;;;;;;;;3.61;59.42;99332.41;1087692;47;1090;-79
2023/12/08 01:13:11;;;;;;;;;;;;;;;3.54;59.70;99338.19;1087851;54;1098;-78
2023/12/08 01:14:14;;;;;;;;;;;;;;;3.50;59.59;99344.66;1087858;54;1035;-77
2023/12/08 01:15:15;;;;;;;;;;;;;;;3.69;59.23;99314.16;1087780;54;1394;-78
2023/12/08 01:16:19;;;;;;;;;;;;;;;3.73;58.94;99320.91;1087535;47;1123;-78
2023/12/08 01:17:20;;;;;;;;;;;;;;;3.84;58.90;99323.56;1087970;54;1140;-77
2023/12/08 01:18:23;;;;;;;;;;;;;;;3.85;58.91;99343.75;1087845;46;1394;-77
2023/12/08 01:19:24;;;;;;;;;;;;;;;3.66;59.15;99354.91;1087917;54;1131;-78
2023/12/08 01:20:27;;;;;;;;;;;;;;;3.55;59.95;99352.22;1087988;54;1244;-77
2023/12/08 01:21:27;;;;;;;;;;;;;;;3.73;59.48;99324.38;1087836;54;1099;-78
2023/12/08 01:22:31;;;;;;;;;;;;;;;3.74;59.35;99310.19;1087991;54;1111;-79
2023/12/08 01:23:32;;;;;;;;;;;;;;;3.73;59.70;99297.13;1088041;54;1083;-78
2023/12/08 01:24:36;;;;;;;;;;;;;;;3.80;59.46;99294.84;1087725;47;1336;-79
2023/12/08 01:25:39;;;;;;;;;;;;;;;3.79;59.68;99293.16;1087911;47;1318;-79
2023/12/08 01:26:44;;;;;;;;;;;;;;;3.81;59.61;99292.06;1087893;47;1182;-79
2023/12/08 01:27:45;;;;;;;;;;;;;;;3.74;59.82;99290.88;1087912;54;1182;-79
2023/12/08 01:28:48;;;;;;;;;;;;;;;3.81;59.57;99291.25;1087926;47;1070;-78
2023/12/08 01:29:49;;;;;;;;;;;;;;;3.83;59.67;99290.16;1087969;54;1083;-77
2023/12/08 01:30:53;;;;;;;;;;;;;;;3.90;59.51;99285.22;1087912;47;1862;-80
2023/12/08 01:31:54;;;;;;;;;;;;;;;3.94;59.35;99272.59;1087557;47;1178;-77
2023/12/08 01:32:58;;;;;;;;;;;;;;;3.98;59.35;99284.59;1088020;46;1497;-78
2023/12/08 01:33:58;;;;;;;;;;;;;;;3.86;59.90;99291.72;1088025;54;891;-79
2023/12/08 01:35:02;;;;;;;;;;;;;;;3.77;60.04;99293.28;1088073;46;1327;-80
2023/12/08 01:36:02;;;;;;;;;;;;;;;3.80;60.23;99293.03;1088092;47;1061;-78
2023/12/08 01:37:06;;;;;;;;;;;;;;;3.83;60.19;99291.94;1088113;54;1183;-77
2023/12/08 01:38:07;;;;;;;;;;;;;;;3.86;59.89;99289.06;1088057;46;977;-77
2023/12/08 01:39:10;;;;;;;;;;;;;;;3.79;60.36;99288.69;1088066;47;1136;-79
2023/12/08 01:40:11;;;;;;;;;;;;;;;3.79;60.14;99290.50;1088223;54;1078;-81
2023/12/08 01:41:15;;;;;;;;;;;;;;;3.77;60.43;99288.00;1088082;54;1022;-79
2023/12/08 01:42:19;;;;;;;;;;;;;;;3.83;60.39;99284.00;1088090;54;1108;-80
2023/12/08 01:43:20;;;;;;;;;;;;;;;3.88;60.19;99285.31;1088079;54;937;-81
2023/12/08 01:44:23;;;;;;;;;;;;;;;3.93;60.10;99276.19;1088081;54;1111;-80
2023/12/08 01:45:24;;;;;;;;;;;;;;;3.91;60.05;99278.97;1088149;47;1417;-80
2023/12/08 01:46:24;;;;;;;;;;;;;;;3.87;60.17;99267.78;1088023;54;996;-78
2023/12/08 01:47:28;;;;;;;;;;;;;;;3.86;60.38;99281.13;1088153;54;1151;-79
2023/12/08 01:48:28;;;;;;;;;;;;;;;3.89;60.37;99287.00;1088148;46;917;-80
2023/12/08 01:49:32;;;;;;;;;;;;;;;3.93;60.45;99292.91;1088088;47;1083;-80
2023/12/08 01:50:33;;;;;;;;;;;;;;;3.99;60.33;99297.72;1088141;54;1852;-80
2023/12/08 01:51:34;;;;;;;;;;;;;;;3.87;60.32;99310.09;1088134;46;1044;-78
2023/12/08 01:52:38;;;;;;;;;;;;;;;3.85;60.67;99306.75;1088221;47;1071;-80
2023/12/08 01:53:40;;;;;;;;;;;;;;;3.82;60.34;99309.63;1088075;47;965;-80
2023/12/08 01:54:43;;;;;;;;;;;;;;;3.78;60.50;99310.81;1087945;54;1066;-79
2023/12/08 01:55:44;;;;;;;;;;;;;;;3.79;60.82;99311.66;1087901;47;1214;-79
2023/12/08 01:56:50;;;;;;;;;;;;;;;3.80;60.94;99308.88;1087922;47;1032;-80
2023/12/08 01:58:01;;;;;;;;;;;;;;;3.65;61.14;99315.38;1088061;54;1079;-81
2023/12/08 01:59:05;;;;;;;;;;;;;;;3.69;61.18;99314.16;1088403;54;944;-82
2023/12/08 02:00:07;;;;;;;;;;;;;;;3.68;61.27;99304.56;1088187;54;958;-80
2023/12/08 02:01:12;;;;;;;;;;;;;;;3.77;61.07;99301.22;1088161;54;938;-81
2023/12/08 02:02:13;;;;;;;;;;;;;;;3.88;60.88;99300.38;1087974;54;988;-79
2023/12/08 02:03:18;;;;;;;;;;;;;;;3.93;60.59;99302.66;1088132;54;955;-77
2023/12/08 02:04:19;;;;;;;;;;;;;;;3.99;60.41;99299.50;1087784;46;973;-81
2023/12/08 02:05:22;;;;;;;;;;;;;;;3.94;60.58;99299.88;1087591;54;1412;-84
2023/12/08 02:06:23;;;;;;;;;;;;;;;3.95;60.51;99295.44;1087552;47;957;-78
2023/12/08 02:07:24;;;;;;;;;;;;;;;3.93;60.20;99292.06;1087727;54;1091;-80
2023/12/08 02:08:27;;;;;;;;;;;;;;;3.99;60.35;99294.22;1088161;54;1150;-78
2023/12/08 02:09:28;;;;;;;;;;;;;;;4.03;60.36;99300.97;1088076;54;1067;-80
2023/12/08 02:10:31;;;;;;;;;;;;;;;4.07;59.93;99305.03;1087320;47;1858;-79
2023/12/08 02:11:32;;;;;;;;;;;;;;;4.06;60.08;99304.22;1086459;51;1083;-76
2023/12/08 02:12:38;;;;;;;;;;;;;;;4.05;60.29;99307.81;1086229;47;1228;-77
2023/12/08 02:13:39;;;;;;;;;;;;;;;4.07;60.30;99307.69;1086138;54;1186;-77
2023/12/08 02:14:44;;;;;;;;;;;;;;;4.03;60.19;99308.91;1086499;47;1043;-78
2023/12/08 02:15:46;;;;;;;;;;;;;;;3.99;60.27;99303.00;1086926;46;1338;-78
2023/12/08 02:16:53;;;;;;;;;;;;;;;3.90;60.11;99291.34;1086354;54;1095;-77
2023/12/08 02:17:54;;;;;;;;;;;;;;;3.88;60.27;99303.84;1087051;47;1043;-77
2023/12/08 02:18:59;;;;;;;;;;;;;;;3.94;60.21;99296.41;1086885;54;1127;-78
2023/12/08 02:20:03;;;;;;;;;;;;;;;3.98;60.03;99277.53;1086881;47;1060;-78
2023/12/08 02:21:08;;;;;;;;;;;;;;;3.92;60.10;99280.63;1086981;54;1149;-79
2023/12/08 02:22:09;;;;;;;;;;;;;;;3.90;60.32;99274.66;1086988;47;1091;-76
2023/12/08 02:23:10;;;;;;;;;;;;;;;3.88;60.18;99282.69;1086864;54;1170;-77
2023/12/08 02:24:19;;;;;;;;;;;;;;;3.92;60.13;99290.38;1086770;47;1129;-77
2023/12/08 02:25:19;;;;;;;;;;;;;;;3.99;60.31;99292.44;1086900;47;1340;-77
2023/12/08 02:26:23;;;;;;;;;;;;;;;3.99;60.23;99288.94;1086703;47;1034;-78
2023/12/08 02:27:24;;;;;;;;;;;;;;;3.90;60.24;99283.41;1087263;47;1020;-78
2023/12/08 02:28:27;;;;;;;;;;;;;;;3.80;60.73;99282.44;1086998;54;1123;-78
2023/12/08 02:29:28;;;;;;;;;;;;;;;3.83;60.74;99289.28;1086697;54;1070;-79
2023/12/08 02:30:29;;;;;;;;;;;;;;;3.82;60.60;99291.09;1086329;47;1031;-76
2023/12/08 02:31:38;;;;;;;;;;;;;;;3.77;60.61;99288.00;1086493;54;1854;-78
2023/12/08 02:32:42;;;;;;;;;;;;;;;3.77;60.92;99290.63;1086514;54;1568;-78
2023/12/08 02:33:47;;;;;;;;;;;;;;;3.77;60.86;99281.84;1086301;47;1043;-79
2023/12/08 02:34:49;;;;;;;;;;;;;;;3.74;60.92;99277.66;1086260;54;1144;-76
2023/12/08 02:35:52;;;;;;;;;;;;;;;3.67;61.10;99273.81;1086384;47;1336;-78
2023/12/08 02:36:54;;;;;;;;;;;;;;;3.67;60.91;99279.09;1086435;47;1144;-78
2023/12/08 02:37:59;;;;;;;;;;;;;;;3.79;60.82;99286.06;1086213;54;1197;-77
2023/12/08 02:39:01;;;;;;;;;;;;;;;3.86;60.53;99281.97;1087121;47;1121;-78
2023/12/08 02:40:09;;;;;;;;;;;;;;;3.93;60.74;99286.78;1087874;47;1480;-79
2023/12/08 02:41:09;;;;;;;;;;;;;;;3.97;60.51;99278.47;1087741;54;1055;-78
2023/12/08 02:42:13;;;;;;;;;;;;;;;3.89;60.77;99275.59;1087392;47;1032;-79
2023/12/08 02:43:15;;;;;;;;;;;;;;;3.95;60.63;99274.28;1087622;47;988;-77
2023/12/08 02:44:18;;;;;;;;;;;;;;;3.94;60.73;99268.13;1087475;54;1150;-77
2023/12/08 02:45:19;;;;;;;;;;;;;;;4.03;60.29;99274.50;1086230;54;1385;-77
2023/12/08 02:46:22;;;;;;;;;;;;;;;4.05;60.47;99269.94;1085949;53;1149;-77
2023/12/08 02:47:23;;;;;;;;;;;;;;;3.96;60.35;99262.75;1085690;47;1661;-77
2023/12/08 02:48:26;;;;;;;;;;;;;;;3.85;60.98;99266.22;1085904;54;1189;-78
2023/12/08 02:49:26;;;;;;;;;;;;;;;3.86;60.59;99260.84;1085615;46;1456;-76
2023/12/08 02:50:30;;;;;;;;;;;;;;;3.80;61.01;99258.66;1085757;54;996;-78
2023/12/08 02:51:30;;;;;;;;;;;;;;;3.79;60.92;99262.25;1085984;54;1860;-78
2023/12/08 02:52:34;;;;;;;;;;;;;;;3.81;61.17;99267.44;1085852;54;1195;-77
2023/12/08 02:53:36;;;;;;;;;;;;;;;3.75;61.02;99269.59;1085773;51;1071;-77
2023/12/08 02:54:39;;;;;;;;;;;;;;;3.78;60.92;99268.50;1085817;54;1123;-77
2023/12/08 02:55:42;;;;;;;;;;;;;;;3.76;60.93;99275.72;1085687;47;1364;-79
2023/12/08 02:56:45;;;;;;;;;;;;;;;3.84;61.01;99273.31;1086083;54;1091;-77
2023/12/08 02:57:46;;;;;;;;;;;;;;;3.92;60.87;99274.53;1086079;54;1165;-77
2023/12/08 02:58:49;;;;;;;;;;;;;;;3.95;60.52;99269.81;1086112;54;1132;-77
2023/12/08 02:59:50;;;;;;;;;;;;;;;3.95;60.86;99267.19;1086173;54;1155;-78
2023/12/08 03:00:53;;;;;;;;;;;;;;;3.87;60.92;99267.78;1086417;54;1142;-78
2023/12/08 03:01:54;;;;;;;;;;;;;;;3.86;60.73;99266.13;1086903;54;1765;-79
2023/12/08 03:02:58;;;;;;;;;;;;;;;3.90;60.93;99262.25;1086768;47;1185;-78
2023/12/08 03:03:59;;;;;;;;;;;;;;;3.94;60.63;99257.56;1086802;54;1154;-78
2023/12/08 03:05:00;;;;;;;;;;;;;;;4.00;60.83;99261.53;1086793;47;1408;-78
2023/12/08 03:06:03;;;;;;;;;;;;;;;4.03;60.57;99258.66;1086914;46;1051;-78
2023/12/08 03:07:05;;;;;;;;;;;;;;;4.08;60.91;99259.09;1086832;54;1230;-77
2023/12/08 03:08:08;;;;;;;;;;;;;;;4.11;60.59;99261.53;1087088;54;1135;-78
2023/12/08 03:09:10;;;;;;;;;;;;;;;4.02;60.86;99265.72;1087164;47;1096;-76
2023/12/08 03:10:13;;;;;;;;;;;;;;;4.03;60.93;99269.22;1087326;47;1001;-77
2023/12/08 03:11:16;;;;;;;;;;;;;;;4.04;61.39;99263.81;1087031;54;1857;-78
2023/12/08 03:12:18;;;;;;;;;;;;;;;4.06;60.88;99256.59;1087661;46;1115;-78
2023/12/08 03:13:21;;;;;;;;;;;;;;;4.10;61.13;99266.94;1087859;54;1060;-80
2023/12/08 03:14:22;;;;;;;;;;;;;;;4.10;60.91;99262.47;1087820;54;1016;-79
2023/12/08 03:15:25;;;;;;;;;;;;;;;3.99;61.33;99266.00;1087742;46;1432;-79
2023/12/08 03:16:26;;;;;;;;;;;;;;;4.11;61.07;99261.53;1087941;54;1123;-78
2023/12/08 03:17:27;;;;;;;;;;;;;;;4.12;61.23;99260.56;1087137;54;1187;-80
2023/12/08 03:18:30;;;;;;;;;;;;;;;4.12;61.12;99260.56;1087108;54;1165;-79
2023/12/08 03:19:31;;;;;;;;;;;;;;;4.09;61.53;99252.84;1087957;54;1106;-79
2023/12/08 03:20:34;;;;;;;;;;;;;;;4.06;61.51;99255.78;1088051;54;1336;-80
2023/12/08 03:21:35;;;;;;;;;;;;;;;4.03;61.48;99262.13;1087853;47;1023;-78
2023/12/08 03:22:39;;;;;;;;;;;;;;;4.05;61.46;99259.38;1087739;54;1136;-79
2023/12/08 03:23:40;;;;;;;;;;;;;;;4.09;61.50;99259.97;1087785;47;1181;-78
2023/12/08 03:24:43;;;;;;;;;;;;;;;4.11;61.68;99266.81;1087656;47;1039;-79
2023/12/08 03:25:44;;;;;;;;;;;;;;;4.15;61.51;99259.47;1087710;54;1336;-79
2023/12/08 03:26:49;;;;;;;;;;;;;;;4.13;61.47;99253.44;1087895;54;1138;-79
2023/12/08 03:27:50;;;;;;;;;;;;;;;4.08;61.62;99250.34;1087782;54;1151;-81
2023/12/08 03:28:51;;;;;;;;;;;;;;;3.99;61.73;99244.81;1087976;54;1088;-80
2023/12/08 03:29:54;;;;;;;;;;;;;;;3.97;61.81;99241.47;1087947;54;1017;-78
2023/12/08 03:30:55;;;;;;;;;;;;;;;3.95;62.06;99251.31;1087348;54;1122;-78
2023/12/08 03:31:59;;;;;;;;;;;;;;;3.99;61.79;99243.97;1087471;47;1853;-78
2023/12/08 03:33:00;;;;;;;;;;;;;;;4.03;61.62;99250.72;1087459;54;1095;-76
2023/12/08 03:34:04;;;;;;;;;;;;;;;4.07;61.65;99246.84;1087159;47;1115;-78
2023/12/08 03:35:05;;;;;;;;;;;;;;;4.10;61.74;99246.59;1087446;47;1398;-79
2023/12/08 03:36:09;;;;;;;;;;;;;;;4.08;62.10;99245.06;1087335;47;984;-79
2023/12/08 03:37:10;;;;;;;;;;;;;;;4.12;61.75;99254.41;1087711;54;1068;-77
2023/12/08 03:38:13;;;;;;;;;;;;;;;4.05;61.69;99243.50;1087799;47;945;-77
2023/12/08 03:39:14;;;;;;;;;;;;;;;4.09;61.94;99233.50;1087751;54;1099;-77
2023/12/08 03:40:18;;;;;;;;;;;;;;;3.93;61.96;99225.97;1087570;54;1072;-78
2023/12/08 03:41:19;;;;;;;;;;;;;;;3.85;62.09;99226.56;1087804;54;1187;-78
2023/12/08 03:42:25;;;;;;;;;;;;;;;3.78;62.23;99210.31;1087869;47;1513;-78
2023/12/08 03:43:27;;;;;;;;;;;;;;;3.69;62.71;99198.69;1087832;54;1111;-78
2023/12/08 03:44:30;;;;;;;;;;;;;;;3.63;62.79;99201.84;1087874;47;962;-78
2023/12/08 03:45:31;;;;;;;;;;;;;;;3.73;62.53;99209.88;1087771;54;1403;-78
2023/12/08 03:46:34;;;;;;;;;;;;;;;3.75;62.41;99202.66;1087853;54;1058;-78
2023/12/08 03:47:35;;;;;;;;;;;;;;;3.72;62.47;99200.25;1087758;54;993;-77
2023/12/08 03:48:36;;;;;;;;;;;;;;;3.56;62.89;99201.47;1087803;47;1012;-78
2023/12/08 03:49:39;;;;;;;;;;;;;;;3.57;62.94;99197.88;1087850;54;1124;-77
2023/12/08 03:50:40;;;;;;;;;;;;;;;3.46;63.32;99200.50;1087806;54;1092;-77
2023/12/08 03:51:43;;;;;;;;;;;;;;;3.52;63.15;99200.03;1087877;54;1858;-78
2023/12/08 03:52:45;;;;;;;;;;;;;;;3.55;62.98;99205.06;1087887;54;1145;-78
2023/12/08 03:53:48;;;;;;;;;;;;;;;3.59;62.86;99211.78;1087918;54;993;-78
2023/12/08 03:54:49;;;;;;;;;;;;;;;3.69;62.47;99216.34;1087964;47;1167;-78
2023/12/08 03:55:49;;;;;;;;;;;;;;;3.78;62.61;99220.91;1087625;54;1443;-77
2023/12/08 03:56:53;;;;;;;;;;;;;;;3.75;62.46;99221.16;1087679;47;1094;-78
2023/12/08 03:57:56;;;;;;;;;;;;;;;3.85;61.95;99227.41;1087623;47;1062;-78
2023/12/08 03:58:59;;;;;;;;;;;;;;;3.90;61.88;99234.97;1087620;54;1103;-78
2023/12/08 04:00:00;;;;;;;;;;;;;;;3.85;61.56;99237.13;1087548;54;1031;-78
2023/12/08 04:01:03;;;;;;;;;;;;;;;3.86;61.68;99234.38;1087601;47;1067;-78
2023/12/08 04:02:04;;;;;;;;;;;;;;;3.87;61.67;99241.34;1087767;54;1091;-79
2023/12/08 04:03:11;;;;;;;;;;;;;;;3.79;61.73;99243.75;1087697;47;1047;-80
2023/12/08 04:04:21;;;;;;;;;;;;;;;3.94;61.34;99246.16;1087817;54;1027;-80
2023/12/08 04:05:24;;;;;;;;;;;;;;;3.93;61.55;99249.75;1087823;54;1308;-79
2023/12/08 04:06:25;;;;;;;;;;;;;;;3.87;61.66;99235.22;1087766;47;1099;-78
2023/12/08 04:07:28;;;;;;;;;;;;;;;3.97;61.40;99224.75;1087142;47;1051;-79
2023/12/08 04:08:28;;;;;;;;;;;;;;;3.88;61.45;99229.78;1087515;47;991;-78
2023/12/08 04:09:32;;;;;;;;;;;;;;;3.91;61.57;99234.03;1087802;54;1525;-79
2023/12/08 04:10:34;;;;;;;;;;;;;;;3.93;61.47;99228.59;1088046;54;1142;-81
2023/12/08 04:11:34;;;;;;;;;;;;;;;3.96;61.08;99217.78;1088125;47;1904;-81
2023/12/08 04:12:38;;;;;;;;;;;;;;;3.84;61.57;99217.78;1088103;47;1049;-80
2023/12/08 04:13:42;;;;;;;;;;;;;;;3.75;61.61;99210.59;1088030;54;1023;-82
2023/12/08 04:14:45;;;;;;;;;;;;;;;3.80;61.33;99203.13;1087962;47;1011;-78
2023/12/08 04:15:46;;;;;;;;;;;;;;;3.84;61.56;99193.13;1087270;47;1367;-79
2023/12/08 04:16:47;;;;;;;;;;;;;;;3.55;61.98;99173.34;1087388;47;1110;-78
2023/12/08 04:17:50;;;;;;;;;;;;;;;3.39;62.09;99162.31;1087506;46;1050;-79
2023/12/08 04:18:51;;;;;;;;;;;;;;;3.26;62.49;99158.00;1086453;54;1512;-78
2023/12/08 04:19:54;;;;;;;;;;;;;;;3.39;62.28;99181.66;1087399;47;1129;-80
2023/12/08 04:20:55;;;;;;;;;;;;;;;3.53;62.06;99196.41;1088124;54;1104;-79
2023/12/08 04:21:59;;;;;;;;;;;;;;;3.59;61.85;99214.44;1087437;47;1097;-79
2023/12/08 04:23:00;;;;;;;;;;;;;;;3.67;61.75;99213.84;1086209;54;1086;-76
2023/12/08 04:24:03;;;;;;;;;;;;;;;3.74;61.67;99214.19;1087392;47;1039;-79
2023/12/08 04:25:04;;;;;;;;;;;;;;;3.77;61.52;99213.09;1087762;46;1311;-79
2023/12/08 04:26:08;;;;;;;;;;;;;;;3.74;61.49;99222.13;1087625;47;1156;-79
2023/12/08 04:27:09;;;;;;;;;;;;;;;3.72;61.66;99229.34;1087854;54;1107;-79
2023/12/08 04:28:12;;;;;;;;;;;;;;;3.68;61.62;99244.59;1087760;54;1049;-79
2023/12/08 04:29:16;;;;;;;;;;;;;;;3.72;61.39;99251.34;1087744;47;1288;-79
2023/12/08 04:30:19;;;;;;;;;;;;;;;3.69;61.54;99248.06;1087979;47;1254;-79
2023/12/08 04:31:20;;;;;;;;;;;;;;;3.69;61.52;99254.22;1087929;47;1072;-77
2023/12/08 04:32:21;;;;;;;;;;;;;;;3.68;61.65;99249.06;1087552;54;1396;-78
2023/12/08 04:33:26;;;;;;;;;;;;;;;3.71;61.65;99257.59;1087752;47;997;-77
2023/12/08 04:34:26;;;;;;;;;;;;;;;3.69;61.89;99258.66;1087440;54;1108;-76
2023/12/08 04:35:30;;;;;;;;;;;;;;;3.66;62.02;99258.91;1086276;47;1351;-80
2023/12/08 04:36:33;;;;;;;;;;;;;;;3.71;62.03;99252.31;1087147;46;1111;-79
2023/12/08 04:37:34;;;;;;;;;;;;;;;3.74;61.97;99248.56;1087152;54;1060;-78
2023/12/08 04:38:37;;;;;;;;;;;;;;;3.77;61.88;99237.75;1087361;54;1186;-79
2023/12/08 04:39:37;;;;;;;;;;;;;;;3.76;62.13;99244.00;1087699;54;1115;-77
2023/12/08 04:40:41;;;;;;;;;;;;;;;3.80;62.30;99245.44;1087582;54;1092;-80
2023/12/08 04:41:42;;;;;;;;;;;;;;;3.79;62.11;99238.47;1087607;47;1076;-78
2023/12/08 04:42:46;;;;;;;;;;;;;;;3.82;62.19;99232.09;1087521;47;1132;-78
2023/12/08 04:43:47;;;;;;;;;;;;;;;3.97;61.83;99227.41;1087822;47;1035;-78
2023/12/08 04:44:53;;;;;;;;;;;;;;;4.00;61.77;99224.50;1088025;46;1016;-82
2023/12/08 04:45:53;;;;;;;;;;;;;;;4.04;61.76;99231.25;1087906;54;1521;-80
2023/12/08 04:46:57;;;;;;;;;;;;;;;4.03;62.07;99232.19;1087275;47;1184;-78
2023/12/08 04:47:58;;;;;;;;;;;;;;;4.05;62.13;99224.97;1087081;54;1189;-76
2023/12/08 04:49:02;;;;;;;;;;;;;;;4.12;61.85;99227.94;1087058;47;1154;-78
2023/12/08 04:50:03;;;;;;;;;;;;;;;4.21;61.78;99228.06;1087811;54;1095;-80
2023/12/08 04:51:07;;;;;;;;;;;;;;;4.27;61.66;99226.72;1088332;46;1027;-79
2023/12/08 04:52:08;;;;;;;;;;;;;;;4.14;61.80;99233.97;1088133;54;1873;-81
2023/12/08 04:53:11;;;;;;;;;;;;;;;4.14;61.73;99232.19;1088387;47;1049;-79
2023/12/08 04:54:12;;;;;;;;;;;;;;;4.10;61.93;99229.91;1088341;46;1039;-79
2023/12/08 04:55:15;;;;;;;;;;;;;;;4.00;62.06;99241.22;1088228;46;1139;-80
2023/12/08 04:56:16;;;;;;;;;;;;;;;3.86;62.49;99244.09;1088219;54;1091;-81
2023/12/08 04:57:19;;;;;;;;;;;;;;;3.86;62.44;99242.31;1088183;47;944;-80
2023/12/08 04:58:20;;;;;;;;;;;;;;;3.86;62.83;99246.75;1088371;54;1462;-79
2023/12/08 04:59:24;;;;;;;;;;;;;;;3.84;62.96;99246.88;1088256;54;1048;-81
2023/12/08 05:00:27;;;;;;;;;;;;;;;3.81;62.84;99249.75;1088231;47;961;-81
2023/12/08 05:01:34;;;;;;;;;;;;;;;3.78;63.02;99247.34;1088350;54;1107;-80
2023/12/08 05:02:35;;;;;;;;;;;;;;;3.81;62.86;99233.91;1088452;54;1115;-81
2023/12/08 05:03:40;;;;;;;;;;;;;;;3.87;62.95;99225.47;1088252;54;1139;-79
2023/12/08 05:04:41;;;;;;;;;;;;;;;3.82;62.92;99217.06;1088433;54;1144;-80
2023/12/08 05:05:45;;;;;;;;;;;;;;;3.81;63.22;99219.84;1088228;47;1429;-79
2023/12/08 05:06:46;;;;;;;;;;;;;;;3.74;63.16;99206.25;1088467;54;1090;-79
2023/12/08 05:07:50;;;;;;;;;;;;;;;3.75;63.13;99213.25;1088374;54;1108;-79
2023/12/08 05:08:51;;;;;;;;;;;;;;;3.82;63.09;99217.06;1088311;47;973;-79
2023/12/08 05:09:55;;;;;;;;;;;;;;;3.84;63.26;99212.50;1088426;54;1046;-79
2023/12/08 05:11:02;;;;;;;;;;;;;;;3.94;62.79;99211.78;1088476;47;1114;-79
2023/12/08 05:12:21;;;;;;;;;;;;;;;3.95;62.67;99216.94;1088361;54;1844;-80
2023/12/08 05:13:27;;;;;;;;;;;;;;;3.92;62.85;99221.63;1088659;46;1146;-79
2023/12/08 05:14:32;;;;;;;;;;;;;;;3.92;63.27;99224.28;1088606;54;1007;-80
2023/12/08 05:15:35;;;;;;;;;;;;;;;4.00;62.81;99213.91;1088717;54;1390;-81
2023/12/08 05:16:50;;;;;;;;;;;;;;;3.94;63.25;99225.81;1088641;46;1081;-82
2023/12/08 05:17:51;;;;;;;;;;;;;;;4.07;62.98;99225.69;1088967;46;990;-81
2023/12/08 05:18:54;;;;;;;;;;;;;;;4.12;62.90;99227.94;1088661;46;1185;-81
2023/12/08 05:19:55;;;;;;;;;;;;;;;4.20;62.79;99234.31;1088680;54;925;-82
2023/12/08 05:21:04;;;;;;;;;;;;;;;4.25;62.76;99239.25;1088739;54;911;-81
2023/12/08 05:22:06;;;;;;;;;;;;;;;4.19;62.55;99240.56;1088678;54;1010;-81
2023/12/08 05:23:10;;;;;;;;;;;;;;;4.18;62.94;99238.88;1088619;54;934;-81
2023/12/08 05:24:11;;;;;;;;;;;;;;;4.29;62.65;99234.53;1088510;54;970;-82
2023/12/08 05:25:15;;;;;;;;;;;;;;;4.34;62.68;99242.97;1088521;54;1342;-80
2023/12/08 05:26:15;;;;;;;;;;;;;;;4.33;62.50;99239.47;1088435;54;940;-80
2023/12/08 05:27:18;;;;;;;;;;;;;;;4.30;63.11;99238.88;1088433;54;991;-80
2023/12/08 05:28:26;;;;;;;;;;;;;;;4.39;62.71;99230.19;1088260;46;1154;-82
2023/12/08 05:29:29;;;;;;;;;;;;;;;4.41;62.60;99217.66;1088351;54;1105;-80
2023/12/08 05:30:31;;;;;;;;;;;;;;;4.35;62.77;99210.22;1087110;47;1673;-78
2023/12/08 05:31:37;;;;;;;;;;;;;;;4.22;62.96;99211.22;1087227;47;1418;-81
2023/12/08 05:32:39;;;;;;;;;;;;;;;4.21;63.08;99211.34;1086847;47;1845;-78
2023/12/08 05:33:42;;;;;;;;;;;;;;;4.21;63.03;99208.69;1085707;47;1031;-78
2023/12/08 05:34:43;;;;;;;;;;;;;;;4.05;62.88;99202.00;1087608;46;1130;-78